createdAt,value
2023-03-22T00:00:57.456Z,8.20
2023-03-22T00:01:59.450Z,8.20
2023-03-22T00:03:01.425Z,8.20
2023-03-22T00:04:03.742Z,8.30
2023-03-22T00:05:06.385Z,8.30
2023-03-22T00:06:09.158Z,8.30
2023-03-22T00:07:11.156Z,8.30
2023-03-22T00:08:14.651Z,8.30
2023-03-22T00:09:16.941Z,8.30
2023-03-22T00:10:18.873Z,8.30
2023-03-22T00:11:24.272Z,8.30
2023-03-22T00:12:26.343Z,8.30
2023-03-22T00:13:28.434Z,8.30
2023-03-22T00:14:30.489Z,8.30
2023-03-22T00:15:32.692Z,8.20
2023-03-22T00:16:34.830Z,8.20
2023-03-22T00:17:36.935Z,8.20
2023-03-22T00:18:38.969Z,8.20
2023-03-22T00:19:42.289Z,8.10
2023-03-22T00:20:49.367Z,8.10
2023-03-22T00:21:51.579Z,8.00
2023-03-22T00:22:53.514Z,8.00
2023-03-22T00:23:55.630Z,8.00
2023-03-22T00:24:57.626Z,7.90
2023-03-22T00:25:59.605Z,8.00
2023-03-22T00:27:01.688Z,8.00
2023-03-22T00:28:03.766Z,8.00
2023-03-22T00:29:06.010Z,8.00
2023-03-22T00:30:11.249Z,8.00
2023-03-22T00:31:13.352Z,8.00
2023-03-22T00:32:16.115Z,8.00
2023-03-22T00:33:18.129Z,8.00
2023-03-22T00:34:20.693Z,8.00
2023-03-22T00:35:22.805Z,8.00
2023-03-22T00:36:24.868Z,8.00
2023-03-22T00:37:33.985Z,7.90
2023-03-22T00:38:44.844Z,7.90
2023-03-22T00:39:47.514Z,7.90
2023-03-22T00:40:49.513Z,7.90
2023-03-22T00:41:52.634Z,7.90
2023-03-22T00:42:54.676Z,7.90
2023-03-22T00:43:56.607Z,7.90
2023-03-22T00:44:58.623Z,7.90
2023-03-22T00:46:00.910Z,7.90
2023-03-22T00:47:03.062Z,7.90
2023-03-22T00:48:05.242Z,7.90
2023-03-22T00:49:07.326Z,8.00
2023-03-22T00:50:09.777Z,8.00
2023-03-22T00:51:12.378Z,8.00
2023-03-22T00:52:14.577Z,8.00
2023-03-22T00:53:17.551Z,8.00
2023-03-22T00:54:19.677Z,8.00
2023-03-22T00:55:21.708Z,8.00
2023-03-22T00:56:25.578Z,7.90
2023-03-22T00:57:34.078Z,7.90
2023-03-22T00:58:36.711Z,7.90
2023-03-22T00:59:40.088Z,7.90
2023-03-22T01:00:42.589Z,7.90
2023-03-22T01:01:44.794Z,7.90
2023-03-22T01:02:47.126Z,7.80
2023-03-22T01:03:52.930Z,7.80
2023-03-22T01:04:56.048Z,7.80
2023-03-22T01:05:58.095Z,7.80
2023-03-22T01:07:01.578Z,7.80
2023-03-22T01:08:08.665Z,7.80
2023-03-22T01:09:14.894Z,7.80
2023-03-22T01:10:17.721Z,7.80
2023-03-22T01:11:19.762Z,7.80
2023-03-22T01:12:21.910Z,7.80
2023-03-22T01:13:24.090Z,7.70
2023-03-22T01:14:26.266Z,7.70
2023-03-22T01:15:28.564Z,7.70
2023-03-22T01:16:31.066Z,7.60
2023-03-22T01:17:36.739Z,7.50
2023-03-22T01:18:38.909Z,7.50
2023-03-22T01:19:41.411Z,7.40
2023-03-22T01:20:43.481Z,7.40
2023-03-22T01:21:46.033Z,7.40
2023-03-22T01:22:48.063Z,7.30
2023-03-22T01:23:50.233Z,7.30
2023-03-22T01:24:52.316Z,7.20
2023-03-22T01:25:54.734Z,7.30
2023-03-22T01:26:57.210Z,7.30
2023-03-22T01:27:59.261Z,7.30
2023-03-22T01:29:01.414Z,7.30
2023-03-22T01:30:04.581Z,7.30
2023-03-22T01:31:07.033Z,7.40
2023-03-22T01:32:09.134Z,7.40
2023-03-22T01:33:11.661Z,7.40
2023-03-22T01:34:13.657Z,7.40
2023-03-22T01:35:16.236Z,7.40
2023-03-22T01:36:18.177Z,7.30
2023-03-22T01:37:22.029Z,7.30
2023-03-22T01:38:24.705Z,7.20
2023-03-22T01:39:33.303Z,7.20
2023-03-22T01:40:40.422Z,7.30
2023-03-22T01:41:43.072Z,7.30
2023-03-22T01:42:49.530Z,7.30
2023-03-22T01:44:17.261Z,7.40
2023-03-22T01:46:00.644Z,7.40
2023-03-22T01:47:04.918Z,7.50
2023-03-22T01:48:22.037Z,7.50
2023-03-22T01:49:29.172Z,7.50
2023-03-22T01:50:31.648Z,7.50
2023-03-22T01:51:34.713Z,7.50
2023-03-22T01:52:45.066Z,7.50
2023-03-22T01:54:06.821Z,7.50
2023-03-22T01:55:09.562Z,7.50
2023-03-22T01:56:37.813Z,7.60
2023-03-22T01:57:43.890Z,7.60
2023-03-22T01:58:55.169Z,7.60
2023-03-22T02:00:19.135Z,7.50
2023-03-22T02:01:41.172Z,7.50
2023-03-22T02:02:50.513Z,7.40
2023-03-22T02:04:07.233Z,7.40
2023-03-22T02:05:09.993Z,7.40
2023-03-22T02:06:12.310Z,7.40
2023-03-22T02:07:16.300Z,7.40
2023-03-22T02:08:21.824Z,7.30
2023-03-22T02:09:30.582Z,7.30
2023-03-22T02:10:32.795Z,7.30
2023-03-22T02:11:46.320Z,7.30
2023-03-22T02:13:24.496Z,7.20
2023-03-22T02:15:17.417Z,7.20
2023-03-22T02:17:32.393Z,7.20
2023-03-22T02:18:47.013Z,7.10
2023-03-22T02:20:10.107Z,7.10
2023-03-22T02:21:34.484Z,7.10
2023-03-22T02:22:42.467Z,7.10
2023-03-22T02:24:09.219Z,7.10
2023-03-22T02:25:47.993Z,7.10
2023-03-22T02:26:59.635Z,7.00
2023-03-22T02:28:19.672Z,7.00
2023-03-22T02:30:00.420Z,7.00
2023-03-22T02:31:14.037Z,7.00
2023-03-22T02:32:53.211Z,7.00
2023-03-22T02:34:16.274Z,7.00
2023-03-22T02:35:38.885Z,6.90
2023-03-22T02:36:52.462Z,7.00
2023-03-22T02:38:13.670Z,7.00
2023-03-22T02:39:32.750Z,6.90
2023-03-22T02:40:40.897Z,6.90
2023-03-22T02:41:59.317Z,7.00
2023-03-22T02:43:16.227Z,6.90
2023-03-22T02:44:27.553Z,6.90
2023-03-22T02:45:36.942Z,6.90
2023-03-22T02:46:43.688Z,6.90
2023-03-22T02:48:13.162Z,6.90
2023-03-22T02:49:36.324Z,6.90
2023-03-22T02:50:46.704Z,6.90
2023-03-22T02:52:12.135Z,6.90
2023-03-22T02:53:32.728Z,6.90
2023-03-22T02:54:48.489Z,6.90
2023-03-22T02:56:02.530Z,6.90
2023-03-22T02:57:15.773Z,6.90
2023-03-22T02:58:25.620Z,6.90
2023-03-22T02:59:29.900Z,7.00
2023-03-22T03:00:36.232Z,6.90
2023-03-22T03:01:47.199Z,6.90
2023-03-22T03:02:57.021Z,7.00
2023-03-22T03:04:02.637Z,7.00
2023-03-22T03:05:08.589Z,7.00
2023-03-22T03:06:16.652Z,7.00
2023-03-22T03:07:22.851Z,7.00
2023-03-22T03:08:27.497Z,6.90
2023-03-22T03:09:31.735Z,6.90
2023-03-22T03:10:35.802Z,6.90
2023-03-22T03:11:37.962Z,6.90
2023-03-22T03:12:40.400Z,6.90
2023-03-22T03:13:42.578Z,6.80
2023-03-22T03:14:44.836Z,6.80
2023-03-22T03:15:52.800Z,6.90
2023-03-22T03:17:01.048Z,6.90
2023-03-22T03:18:15.197Z,6.90
2023-03-22T03:19:25.534Z,6.90
2023-03-22T03:20:30.356Z,6.90
2023-03-22T03:22:08.332Z,6.90
2023-03-22T03:23:49.713Z,6.90
2023-03-22T03:25:04.204Z,6.80
2023-03-22T03:26:18.142Z,6.80
2023-03-22T03:27:36.850Z,6.80
2023-03-22T03:28:47.739Z,6.80
2023-03-22T03:30:02.512Z,6.80
2023-03-22T03:31:10.168Z,6.80
2023-03-22T03:32:42.092Z,6.80
2023-03-22T03:34:02.893Z,6.80
2023-03-22T03:35:22.525Z,6.80
2023-03-22T03:36:26.364Z,6.80
2023-03-22T03:37:41.611Z,6.80
2023-03-22T03:38:48.592Z,6.90
2023-03-22T03:40:01.645Z,6.90
2023-03-22T03:41:08.610Z,6.90
2023-03-22T03:42:14.839Z,6.90
2023-03-22T03:43:17.648Z,6.90
2023-03-22T03:44:20.436Z,6.90
2023-03-22T03:45:25.064Z,6.90
2023-03-22T03:46:29.146Z,6.80
2023-03-22T03:47:32.317Z,6.80
2023-03-22T03:48:37.413Z,6.80
2023-03-22T03:49:39.708Z,6.80
2023-03-22T03:50:42.925Z,6.80
2023-03-22T03:51:52.292Z,6.80
2023-03-22T03:52:56.069Z,6.80
2023-03-22T03:53:58.498Z,6.70
2023-03-22T03:55:00.480Z,6.70
2023-03-22T03:56:07.974Z,6.60
2023-03-22T03:57:16.743Z,6.60
2023-03-22T03:58:18.714Z,6.60
2023-03-22T03:59:22.173Z,6.50
2023-03-22T04:00:26.143Z,6.50
2023-03-22T04:02:06.615Z,6.50
2023-03-22T04:03:09.148Z,6.40
2023-03-22T04:04:27.016Z,6.50
2023-03-22T04:05:39.291Z,6.40
2023-03-22T04:06:41.787Z,6.40
2023-03-22T04:07:48.789Z,6.40
2023-03-22T04:08:53.771Z,6.40
2023-03-22T04:10:00.044Z,6.40
2023-03-22T04:11:06.826Z,6.40
2023-03-22T04:12:12.553Z,6.30
2023-03-22T04:13:14.584Z,6.30
2023-03-22T04:14:16.884Z,6.30
2023-03-22T04:15:22.177Z,6.30
2023-03-22T04:16:28.830Z,6.30
2023-03-22T04:17:32.157Z,6.20
2023-03-22T04:18:34.559Z,6.20
2023-03-22T04:19:39.694Z,6.20
2023-03-22T04:20:42.973Z,6.20
2023-03-22T04:21:45.902Z,6.20
2023-03-22T04:22:49.023Z,6.20
2023-03-22T04:23:51.573Z,6.20
2023-03-22T04:24:53.767Z,6.20
2023-03-22T04:25:59.666Z,6.20
2023-03-22T04:27:12.251Z,6.20
2023-03-22T04:28:26.322Z,6.20
2023-03-22T04:29:32.293Z,6.20
2023-03-22T04:30:54.364Z,6.20
2023-03-22T04:32:16.963Z,6.20
2023-03-22T04:33:19.953Z,6.20
2023-03-22T04:34:43.397Z,6.20
2023-03-22T04:35:48.337Z,6.20
2023-03-22T04:36:50.759Z,6.30
2023-03-22T04:38:01.295Z,6.30
2023-03-22T04:39:09.508Z,6.30
2023-03-22T04:40:16.903Z,6.30
2023-03-22T04:41:31.287Z,6.30
2023-03-22T04:42:33.627Z,6.40
2023-03-22T04:43:47.093Z,6.40
2023-03-22T04:44:50.868Z,6.40
2023-03-22T04:45:55.049Z,6.50
2023-03-22T04:47:01.299Z,6.50
2023-03-22T04:48:03.415Z,6.50
2023-03-22T04:49:06.906Z,6.50
2023-03-22T04:50:12.504Z,6.50
2023-03-22T04:51:26.981Z,6.40
2023-03-22T04:52:50.057Z,6.30
2023-03-22T04:53:52.971Z,6.30
2023-03-22T04:54:55.349Z,6.30
2023-03-22T04:55:57.943Z,6.30
2023-03-22T04:57:01.900Z,6.20
2023-03-22T04:58:07.948Z,6.20
2023-03-22T04:59:11.425Z,6.20
2023-03-22T05:00:13.804Z,6.10
2023-03-22T05:01:18.125Z,6.10
2023-03-22T05:02:22.689Z,6.00
2023-03-22T05:03:25.740Z,6.00
2023-03-22T05:04:28.647Z,6.00
2023-03-22T05:05:37.567Z,6.00
2023-03-22T05:06:39.619Z,6.00
2023-03-22T05:07:48.073Z,6.00
2023-03-22T05:08:50.284Z,6.00
2023-03-22T05:09:53.817Z,6.00
2023-03-22T05:10:58.118Z,6.00
2023-03-22T05:12:00.153Z,6.00
2023-03-22T05:13:07.854Z,6.00
2023-03-22T05:14:14.999Z,6.00
2023-03-22T05:15:17.155Z,6.00
2023-03-22T05:16:19.534Z,6.00
2023-03-22T05:17:25.728Z,6.00
2023-03-22T05:18:32.700Z,6.00
2023-03-22T05:19:34.686Z,6.00
2023-03-22T05:20:37.720Z,6.10
2023-03-22T05:21:46.834Z,6.10
2023-03-22T05:22:50.649Z,6.10
2023-03-22T05:23:58.433Z,6.10
2023-03-22T05:25:00.809Z,6.10
2023-03-22T05:26:04.192Z,6.20
2023-03-22T05:27:07.094Z,6.20
2023-03-22T05:28:09.121Z,6.30
2023-03-22T05:29:24.454Z,6.40
2023-03-22T05:30:42.977Z,6.40
2023-03-22T05:32:05.570Z,6.50
2023-03-22T05:33:08.733Z,6.50
2023-03-22T05:34:15.932Z,6.60
2023-03-22T05:35:18.798Z,6.60
2023-03-22T05:36:26.077Z,6.70
2023-03-22T05:37:54.514Z,6.70
2023-03-22T05:38:57.666Z,6.80
2023-03-22T05:39:59.706Z,6.90
2023-03-22T05:41:13.959Z,6.90
2023-03-22T05:42:16.784Z,6.90
2023-03-22T05:43:19.362Z,7.00
2023-03-22T05:44:24.592Z,7.00
2023-03-22T05:45:42.100Z,7.00
2023-03-22T05:47:00.584Z,7.10
2023-03-22T05:48:08.406Z,7.10
2023-03-22T05:49:12.200Z,7.10
2023-03-22T05:50:18.035Z,7.20
2023-03-22T05:51:20.022Z,7.20
2023-03-22T05:52:26.391Z,7.20
2023-03-22T05:53:54.773Z,7.20
2023-03-22T05:55:01.238Z,7.20
2023-03-22T05:56:03.663Z,7.30
2023-03-22T05:57:08.215Z,7.30
2023-03-22T05:58:10.921Z,7.30
2023-03-22T05:59:14.822Z,7.30
2023-03-22T06:00:19.159Z,7.40
2023-03-22T06:01:41.068Z,7.40
2023-03-22T06:02:56.786Z,7.40
2023-03-22T06:03:59.402Z,7.50
2023-03-22T06:05:10.977Z,7.50
2023-03-22T06:06:13.905Z,7.50
2023-03-22T06:07:29.015Z,7.50
2023-03-22T06:08:35.879Z,7.60
2023-03-22T06:09:38.076Z,7.60
2023-03-22T06:10:43.585Z,7.70
2023-03-22T06:11:46.092Z,7.70
2023-03-22T06:12:50.670Z,7.70
2023-03-22T06:13:59.742Z,7.70
2023-03-22T06:15:08.904Z,7.70
2023-03-22T06:16:11.250Z,7.80
2023-03-22T06:17:13.676Z,7.80
2023-03-22T06:18:16.421Z,7.80
2023-03-22T06:19:23.817Z,7.90
2023-03-22T06:20:25.943Z,7.90
2023-03-22T06:21:34.852Z,7.90
2023-03-22T06:22:37.286Z,7.90
2023-03-22T06:23:39.439Z,8.00
2023-03-22T06:24:42.498Z,8.00
2023-03-22T06:25:48.295Z,8.00
2023-03-22T06:26:51.579Z,8.10
2023-03-22T06:27:53.812Z,8.10
2023-03-22T06:28:56.377Z,8.10
2023-03-22T06:29:58.450Z,8.20
2023-03-22T06:31:07.497Z,8.30
2023-03-22T06:32:28.848Z,8.30
2023-03-22T06:33:32.021Z,8.40
2023-03-22T06:34:40.069Z,8.40
2023-03-22T06:35:42.729Z,8.50
2023-03-22T06:36:48.621Z,8.40
2023-03-22T06:38:00.349Z,8.50
2023-03-22T06:39:05.290Z,8.50
2023-03-22T06:40:09.119Z,8.60
2023-03-22T06:41:11.524Z,8.70
2023-03-22T06:42:13.751Z,8.70
2023-03-22T06:43:16.585Z,8.80
2023-03-22T06:44:22.638Z,8.80
2023-03-22T06:45:27.301Z,8.90
2023-03-22T06:46:29.346Z,9.00
2023-03-22T06:47:41.061Z,9.00
2023-03-22T06:48:49.513Z,9.00
2023-03-22T06:49:52.264Z,9.10
2023-03-22T06:50:59.801Z,9.10
2023-03-22T06:52:07.510Z,9.10
2023-03-22T06:53:12.149Z,9.20
2023-03-22T06:54:16.133Z,9.20
2023-03-22T06:55:18.218Z,9.20
2023-03-22T06:56:20.291Z,9.20
2023-03-22T06:57:26.483Z,9.20
2023-03-22T06:58:28.617Z,9.20
2023-03-22T06:59:31.012Z,9.20
2023-03-22T07:00:34.324Z,9.20
2023-03-22T07:01:36.576Z,9.30
2023-03-22T07:02:38.782Z,9.40
2023-03-22T07:04:16.139Z,9.40
2023-03-22T07:05:20.974Z,9.50
2023-03-22T07:06:23.045Z,9.50
2023-03-22T07:07:26.250Z,9.50
2023-03-22T07:08:28.344Z,9.50
2023-03-22T07:09:30.343Z,9.50
2023-03-22T07:10:34.671Z,9.50
2023-03-22T07:11:36.790Z,9.50
2023-03-22T07:12:39.272Z,9.60
2023-03-22T07:13:47.190Z,9.60
2023-03-22T07:14:53.596Z,9.70
2023-03-22T07:16:04.891Z,9.80
2023-03-22T07:17:14.423Z,9.80
2023-03-22T07:18:16.743Z,9.90
2023-03-22T07:19:19.326Z,10.00
2023-03-22T07:20:22.259Z,10.00
2023-03-22T07:21:24.956Z,10.10
2023-03-22T07:22:31.461Z,10.20
2023-03-22T07:23:33.495Z,10.30
2023-03-22T07:24:53.885Z,10.40
2023-03-22T07:26:00.777Z,10.40
2023-03-22T07:27:06.891Z,10.50
2023-03-22T07:28:11.333Z,10.70
2023-03-22T07:29:13.406Z,10.90
2023-03-22T07:30:15.584Z,11.10
2023-03-22T07:31:20.508Z,11.40
2023-03-22T07:32:31.677Z,11.80
2023-03-22T07:33:41.699Z,12.10
2023-03-22T07:34:43.875Z,12.50
2023-03-22T07:35:50.655Z,12.80
2023-03-22T07:36:52.829Z,13.00
2023-03-22T07:37:56.146Z,13.20
2023-03-22T07:39:05.958Z,13.40
2023-03-22T07:40:11.960Z,13.70
2023-03-22T07:41:14.442Z,13.90
2023-03-22T07:42:36.851Z,14.10
2023-03-22T07:44:14.778Z,14.30
2023-03-22T07:45:27.745Z,14.40
2023-03-22T07:46:51.836Z,14.60
2023-03-22T07:48:01.269Z,14.70
2023-03-22T07:49:19.771Z,14.80
2023-03-22T07:50:38.911Z,14.80
2023-03-22T07:51:41.591Z,15.00
2023-03-22T07:52:44.912Z,15.10
2023-03-22T07:53:47.124Z,15.20
2023-03-22T07:54:49.521Z,15.40
2023-03-22T07:55:51.544Z,15.50
2023-03-22T07:56:53.636Z,15.60
2023-03-22T07:57:56.510Z,15.60
2023-03-22T07:58:58.889Z,15.60
2023-03-22T08:00:01.454Z,15.70
2023-03-22T08:01:17.399Z,15.80
2023-03-22T08:02:30.274Z,15.80
2023-03-22T08:03:35.183Z,15.90
2023-03-22T08:04:43.826Z,16.10
2023-03-22T08:05:51.777Z,16.30
2023-03-22T08:06:58.644Z,16.40
2023-03-22T08:08:00.698Z,16.60
2023-03-22T08:09:08.526Z,16.70
2023-03-22T08:10:10.972Z,16.80
2023-03-22T08:11:13.512Z,16.90
2023-03-22T08:12:15.799Z,17.00
2023-03-22T08:13:18.810Z,17.20
2023-03-22T08:14:30.566Z,17.40
2023-03-22T08:15:38.422Z,17.50
2023-03-22T08:16:41.788Z,17.60
2023-03-22T08:17:43.868Z,17.60
2023-03-22T08:18:51.598Z,17.80
2023-03-22T08:19:56.584Z,18.00
2023-03-22T08:21:09.874Z,17.90
2023-03-22T08:22:13.730Z,17.80
2023-03-22T08:23:42.506Z,17.80
2023-03-22T08:25:04.700Z,18.10
2023-03-22T08:26:11.773Z,18.40
2023-03-22T08:27:14.240Z,18.60
2023-03-22T08:28:24.114Z,18.80
2023-03-22T08:29:26.756Z,19.00
2023-03-22T08:30:29.020Z,19.10
2023-03-22T08:31:31.690Z,19.20
2023-03-22T08:32:34.729Z,19.20
2023-03-22T08:33:37.776Z,19.30
2023-03-22T08:34:41.438Z,19.30
2023-03-22T08:35:45.087Z,19.30
2023-03-22T08:36:47.190Z,19.40
2023-03-22T08:37:53.042Z,19.50
2023-03-22T08:38:55.394Z,19.60
2023-03-22T08:40:09.653Z,19.70
2023-03-22T08:41:26.126Z,19.80
2023-03-22T08:42:28.133Z,19.90
2023-03-22T08:43:30.269Z,20.00
2023-03-22T08:44:32.541Z,19.90
2023-03-22T08:45:37.776Z,20.00
2023-03-22T08:46:45.628Z,19.80
2023-03-22T08:47:47.944Z,19.90
2023-03-22T08:48:50.871Z,19.90
2023-03-22T08:50:03.168Z,20.00
2023-03-22T08:51:27.179Z,19.90
2023-03-22T08:52:39.760Z,19.70
2023-03-22T08:53:52.928Z,19.80
2023-03-22T08:55:21.139Z,19.80
2023-03-22T08:56:41.861Z,19.90
2023-03-22T08:57:59.146Z,20.00
2023-03-22T08:59:21.247Z,20.10
2023-03-22T09:00:47.830Z,20.20
2023-03-22T09:02:05.772Z,20.30
2023-03-22T09:03:07.894Z,20.50
2023-03-22T09:04:10.817Z,20.50
2023-03-22T09:05:14.262Z,20.50
2023-03-22T09:06:17.791Z,20.50
2023-03-22T09:07:20.892Z,20.50
2023-03-22T09:08:31.672Z,20.50
2023-03-22T09:09:40.759Z,20.50
2023-03-22T09:10:44.199Z,20.70
2023-03-22T09:11:47.845Z,20.70
2023-03-22T09:12:49.915Z,20.90
2023-03-22T09:13:52.515Z,21.10
2023-03-22T09:14:56.887Z,21.20
2023-03-22T09:16:01.061Z,21.30
2023-03-22T09:17:06.444Z,21.40
2023-03-22T09:18:08.544Z,21.40
2023-03-22T09:19:11.157Z,21.50
2023-03-22T09:20:13.479Z,21.70
2023-03-22T09:21:18.420Z,21.90
2023-03-22T09:22:40.758Z,22.00
2023-03-22T09:23:47.784Z,22.10
2023-03-22T09:24:51.801Z,22.10
2023-03-22T09:25:53.954Z,22.10
2023-03-22T09:26:59.198Z,22.30
2023-03-22T09:28:04.533Z,22.60
2023-03-22T09:29:07.031Z,22.60
2023-03-22T09:30:09.967Z,22.60
2023-03-22T09:31:12.191Z,22.60
2023-03-22T09:32:16.372Z,22.70
2023-03-22T09:33:21.223Z,22.90
2023-03-22T09:34:25.925Z,22.90
2023-03-22T09:35:28.098Z,22.80
2023-03-22T09:36:36.061Z,23.00
2023-03-22T09:37:39.043Z,23.10
2023-03-22T09:38:42.089Z,23.10
2023-03-22T09:39:44.751Z,23.10
2023-03-22T09:41:00.838Z,23.30
2023-03-22T09:42:24.345Z,23.40
2023-03-22T09:43:33.062Z,23.40
2023-03-22T09:44:43.155Z,23.50
2023-03-22T09:45:51.999Z,23.50
2023-03-22T09:46:56.861Z,23.60
2023-03-22T09:47:59.899Z,23.70
2023-03-22T09:49:06.172Z,23.70
2023-03-22T09:50:20.295Z,23.70
2023-03-22T09:51:28.274Z,23.70
2023-03-22T09:52:31.041Z,23.70
2023-03-22T09:53:33.352Z,23.80
2023-03-22T09:54:38.600Z,23.90
2023-03-22T09:56:04.179Z,23.80
2023-03-22T09:57:15.687Z,24.00
2023-03-22T09:58:29.366Z,24.30
2023-03-22T09:59:40.950Z,24.50
2023-03-22T10:01:05.316Z,24.50
2023-03-22T10:02:32.212Z,24.60
2023-03-22T10:04:14.445Z,24.50
2023-03-22T10:05:21.572Z,24.60
2023-03-22T10:06:28.219Z,24.90
2023-03-22T10:07:52.774Z,24.90
2023-03-22T10:09:03.054Z,24.90
2023-03-22T10:10:28.152Z,24.90
2023-03-22T10:11:36.171Z,24.80
2023-03-22T10:13:08.324Z,24.70
2023-03-22T10:14:31.141Z,24.80
2023-03-22T10:15:45.946Z,24.90
2023-03-22T10:16:48.678Z,25.00
2023-03-22T10:17:54.410Z,24.90
2023-03-22T10:19:04.501Z,24.80
2023-03-22T10:20:37.003Z,24.90
2023-03-22T10:21:39.790Z,25.10
2023-03-22T10:22:44.765Z,25.10
2023-03-22T10:24:03.979Z,25.00
2023-03-22T10:25:08.899Z,25.10
2023-03-22T10:26:21.009Z,25.30
2023-03-22T10:27:26.355Z,25.30
2023-03-22T10:28:48.755Z,25.20
2023-03-22T10:30:03.058Z,25.20
2023-03-22T10:31:06.043Z,25.40
2023-03-22T10:32:20.748Z,25.60
2023-03-22T10:33:50.486Z,25.90
2023-03-22T10:34:53.071Z,26.00
2023-03-22T10:35:56.668Z,26.20
2023-03-22T10:37:01.542Z,26.40
2023-03-22T10:38:19.188Z,26.50
2023-03-22T10:39:30.088Z,26.60
2023-03-22T10:40:34.962Z,26.50
2023-03-22T10:41:37.766Z,26.50
2023-03-22T10:42:40.908Z,26.40
2023-03-22T10:43:44.900Z,26.00
2023-03-22T10:44:52.044Z,26.20
2023-03-22T10:45:56.750Z,26.30
2023-03-22T10:47:07.405Z,26.20
2023-03-22T10:48:24.695Z,26.30
2023-03-22T10:49:33.166Z,26.30
2023-03-22T10:50:42.226Z,26.40
2023-03-22T10:51:49.162Z,26.40
2023-03-22T10:53:13.177Z,26.30
2023-03-22T10:54:26.262Z,26.20
2023-03-22T10:55:28.875Z,26.20
2023-03-22T10:56:31.241Z,25.90
2023-03-22T10:57:33.292Z,25.90
2023-03-22T10:58:35.632Z,25.60
2023-03-22T10:59:51.790Z,25.60
2023-03-22T11:00:59.695Z,25.60
2023-03-22T11:02:02.070Z,25.60
2023-03-22T11:03:06.421Z,25.60
2023-03-22T11:04:16.235Z,25.60
2023-03-22T11:05:25.856Z,25.60
2023-03-22T11:06:32.960Z,25.50
2023-03-22T11:07:39.007Z,25.50
2023-03-22T11:08:51.672Z,25.50
2023-03-22T11:10:08.805Z,25.50
2023-03-22T11:11:19.849Z,25.40
2023-03-22T11:12:23.403Z,25.30
2023-03-22T11:13:26.151Z,25.30
2023-03-22T11:14:42.864Z,25.20
2023-03-22T11:16:03.149Z,25.20
2023-03-22T11:17:14.187Z,25.00
2023-03-22T11:18:18.222Z,25.00
2023-03-22T11:19:32.242Z,24.80
2023-03-22T11:20:34.996Z,24.90
2023-03-22T11:21:37.078Z,25.00
2023-03-22T11:22:44.407Z,25.00
2023-03-22T11:24:13.206Z,25.20
2023-03-22T11:25:26.869Z,25.40
2023-03-22T11:26:37.447Z,25.30
2023-03-22T11:28:06.220Z,25.50
2023-03-22T11:29:13.618Z,25.70
2023-03-22T11:30:22.436Z,25.80
2023-03-22T11:31:26.095Z,25.90
2023-03-22T11:32:35.523Z,26.10
2023-03-22T11:33:38.580Z,26.30
2023-03-22T11:34:46.426Z,26.30
2023-03-22T11:35:55.831Z,26.20
2023-03-22T11:37:01.216Z,26.00
2023-03-22T11:38:04.216Z,25.70
2023-03-22T11:39:08.188Z,25.60
2023-03-22T11:40:18.844Z,25.60
2023-03-22T11:41:24.798Z,25.70
2023-03-22T11:42:27.172Z,25.90
2023-03-22T11:43:48.437Z,26.00
2023-03-22T11:44:52.219Z,25.90
2023-03-22T11:45:57.393Z,25.80
2023-03-22T11:47:02.117Z,25.70
2023-03-22T11:48:16.482Z,25.60
2023-03-22T11:49:19.155Z,25.60
2023-03-22T11:50:34.740Z,25.70
2023-03-22T11:51:39.305Z,25.90
2023-03-22T11:52:47.981Z,26.00
2023-03-22T11:53:50.192Z,26.00
2023-03-22T11:54:54.159Z,26.00
2023-03-22T11:55:57.921Z,26.10
2023-03-22T11:57:04.399Z,26.20
2023-03-22T11:58:06.893Z,26.10
2023-03-22T11:59:14.642Z,26.10
2023-03-22T12:00:21.569Z,26.00
2023-03-22T12:01:52.494Z,26.00
2023-03-22T12:03:07.076Z,26.00
2023-03-22T12:04:20.341Z,26.00
2023-03-22T12:05:28.547Z,25.90
2023-03-22T12:06:36.512Z,25.90
2023-03-22T12:07:41.196Z,26.00
2023-03-22T12:08:47.388Z,26.20
2023-03-22T12:10:02.223Z,26.40
2023-03-22T12:11:07.708Z,26.50
2023-03-22T12:12:21.431Z,26.20
2023-03-22T12:13:44.003Z,26.20
2023-03-22T12:15:01.285Z,26.10
2023-03-22T12:16:06.556Z,26.00
2023-03-22T12:17:16.935Z,26.10
2023-03-22T12:18:34.572Z,26.10
2023-03-22T12:20:18.662Z,26.00
2023-03-22T12:21:20.778Z,25.60
2023-03-22T12:22:32.769Z,25.70
2023-03-22T12:23:35.826Z,25.70
2023-03-22T12:24:37.874Z,25.90
2023-03-22T12:25:42.947Z,26.00
2023-03-22T12:26:45.718Z,25.90
2023-03-22T12:27:57.216Z,25.90
2023-03-22T12:29:01.625Z,25.70
2023-03-22T12:30:14.204Z,25.60
2023-03-22T12:31:26.591Z,25.50
2023-03-22T12:32:36.283Z,25.40
2023-03-22T12:33:47.482Z,25.20
2023-03-22T12:34:55.137Z,25.10
2023-03-22T12:36:06.326Z,25.00
2023-03-22T12:37:16.331Z,24.90
2023-03-22T12:38:40.644Z,24.90
2023-03-22T12:39:53.946Z,24.90
2023-03-22T12:41:00.542Z,24.90
2023-03-22T12:42:40.666Z,25.00
2023-03-22T12:44:01.554Z,24.90
2023-03-22T12:45:11.238Z,24.80
2023-03-22T12:46:28.241Z,24.90
2023-03-22T12:47:46.494Z,24.90
2023-03-22T12:49:19.388Z,24.90
2023-03-22T12:50:28.953Z,24.90
2023-03-22T12:51:31.070Z,25.00
2023-03-22T12:52:46.113Z,25.00
2023-03-22T12:53:54.573Z,25.00
2023-03-22T12:54:59.264Z,25.10
2023-03-22T12:56:01.862Z,25.10
2023-03-22T12:57:04.659Z,25.10
2023-03-22T12:58:12.959Z,25.20
2023-03-22T12:59:23.410Z,25.30
2023-03-22T13:00:50.560Z,25.30
2023-03-22T13:02:15.566Z,25.20
2023-03-22T13:03:17.673Z,25.20
2023-03-22T13:04:28.146Z,25.20
2023-03-22T13:05:33.699Z,25.20
2023-03-22T13:06:44.660Z,25.30
2023-03-22T13:07:46.747Z,25.30
2023-03-22T13:09:08.913Z,25.30
2023-03-22T13:10:29.540Z,25.00
2023-03-22T13:11:31.675Z,25.00
2023-03-22T13:12:34.713Z,24.90
2023-03-22T13:13:46.555Z,24.90
2023-03-22T13:14:57.659Z,24.90
2023-03-22T13:16:08.904Z,24.90
2023-03-22T13:17:11.288Z,24.90
2023-03-22T13:18:45.395Z,25.00
2023-03-22T13:19:54.379Z,25.00
2023-03-22T13:21:23.618Z,25.00
2023-03-22T13:22:51.880Z,25.00
2023-03-22T13:23:58.388Z,25.00
2023-03-22T13:25:12.600Z,25.10
2023-03-22T13:26:16.346Z,25.00
2023-03-22T13:27:18.347Z,25.00
2023-03-22T13:28:22.808Z,24.90
2023-03-22T13:29:24.794Z,24.80
2023-03-22T13:30:37.008Z,24.70
2023-03-22T13:32:02.204Z,24.70
2023-03-22T13:33:10.037Z,24.60
2023-03-22T13:34:34.005Z,24.60
2023-03-22T13:35:51.123Z,24.60
2023-03-22T13:36:56.374Z,24.60
2023-03-22T13:38:06.958Z,24.60
2023-03-22T13:39:12.497Z,24.60
2023-03-22T13:40:26.760Z,24.50
2023-03-22T13:41:35.224Z,24.50
2023-03-22T13:42:40.089Z,24.50
2023-03-22T13:43:50.446Z,24.60
2023-03-22T13:44:58.665Z,24.60
2023-03-22T13:46:03.806Z,24.60
2023-03-22T13:47:28.597Z,24.50
2023-03-22T13:48:43.812Z,24.40
2023-03-22T13:49:53.246Z,24.40
2023-03-22T13:50:56.669Z,24.50
2023-03-22T13:52:06.806Z,24.40
2023-03-22T13:53:33.864Z,24.50
2023-03-22T13:54:47.623Z,24.50
2023-03-22T13:55:51.483Z,24.40
2023-03-22T13:56:58.546Z,24.40
2023-03-22T13:58:01.803Z,24.40
2023-03-22T13:59:05.272Z,24.40
2023-03-22T14:00:32.835Z,24.40
2023-03-22T14:01:38.278Z,24.50
2023-03-22T14:02:42.482Z,24.40
2023-03-22T14:03:47.584Z,24.40
2023-03-22T14:05:01.963Z,24.20
2023-03-22T14:06:21.886Z,24.20
2023-03-22T14:07:33.528Z,24.20
2023-03-22T14:08:37.486Z,24.20
2023-03-22T14:09:45.458Z,24.20
2023-03-22T14:11:01.912Z,24.20
2023-03-22T14:12:18.332Z,24.20
2023-03-22T14:13:35.092Z,24.20
2023-03-22T14:14:43.224Z,24.20
2023-03-22T14:15:53.701Z,24.20
2023-03-22T14:17:21.060Z,24.20
2023-03-22T14:18:36.152Z,24.20
2023-03-22T14:19:39.072Z,24.00
2023-03-22T14:20:41.823Z,24.10
